sensor_id;sensor_type;location;lat;lon;timestamp;pressure;altitude;pressure_sealevel;temperature;humidity
5879;BME280;2965;42.640;23.370;2022-11-18T05:02:11;93423.91;;;5.67;100.00
5879;BME280;2965;42.640;23.370;2022-11-18T05:04:37;93422.91;;;5.83;100.00
5879;BME280;2965;42.640;23.370;2022-11-18T05:07:04;93422.66;;;5.93;100.00
5879;BME280;2965;42.640;23.370;2022-11-18T05:09:29;93432.13;;;5.71;100.00
5879;BME280;2965;42.640;23.370;2022-11-18T05:11:55;93419.97;;;5.71;100.00
5879;BME280;2965;42.640;23.370;2022-11-18T05:14:39;93422.00;;;5.91;100.00
5879;BME280;2965;42.640;23.370;2022-11-18T05:17:06;93428.91;;;5.83;100.00
5879;BME280;2965;42.640;23.370;2022-11-18T05:19:32;93441.81;;;5.92;100.00
5879;BME280;2965;42.640;23.370;2022-11-18T05:21:58;93437.13;;;6.02;100.00
5879;BME280;2965;42.640;23.370;2022-11-18T05:24:24;93439.53;;;6.18;100.00
5879;BME280;2965;42.640;23.370;2022-11-18T05:26:52;93433.09;;;6.14;100.00
5879;BME280;2965;42.640;23.370;2022-11-18T05:29:19;93448.25;;;5.96;100.00
5879;BME280;2965;42.640;23.370;2022-11-18T05:31:45;93421.91;;;6.14;100.00
5879;BME280;2965;42.640;23.370;2022-11-18T05:34:12;93438.28;;;6.29;100.00
5879;BME280;2965;42.640;23.370;2022-11-18T05:36:37;93436.72;;;6.35;100.00
5879;BME280;2965;42.640;23.370;2022-11-18T05:39:03;93435.84;;;6.27;100.00
5879;BME280;2965;42.640;23.370;2022-11-18T05:41:28;93439.09;;;6.15;100.00
5879;BME280;2965;42.640;23.370;2022-11-18T05:44:12;93431.88;;;6.31;100.00
5879;BME280;2965;42.640;23.370;2022-11-18T05:46:38;93403.22;;;6.40;100.00
5879;BME280;2965;42.640;23.370;2022-11-18T05:49:03;93434.50;;;6.31;100.00
5879;BME280;2965;42.640;23.370;2022-11-18T05:51:29;93437.19;;;6.38;100.00
5879;BME280;2965;42.640;23.370;2022-11-18T05:53:54;93432.03;;;6.45;100.00
5879;BME280;2965;42.640;23.370;2022-11-18T05:58:51;93411.50;;;6.71;100.00
5879;BME280;2965;42.640;23.370;2022-11-18T06:01:20;93429.38;;;6.81;100.00
5879;BME280;2965;42.640;23.370;2022-11-18T06:03:47;93431.13;;;6.74;100.00
5879;BME280;2965;42.640;23.370;2022-11-18T06:06:14;93414.84;;;6.87;100.00
5879;BME280;2965;42.640;23.370;2022-11-18T06:08:48;93450.00;;;6.61;100.00
5879;BME280;2965;42.640;23.370;2022-11-18T06:11:16;93439.16;;;6.57;100.00
5879;BME280;2965;42.640;23.370;2022-11-18T06:13:49;93437.16;;;6.60;100.00
5879;BME280;2965;42.640;23.370;2022-11-18T06:16:22;93419.94;;;6.73;100.00
5879;BME280;2965;42.640;23.370;2022-11-18T06:18:49;93400.97;;;6.79;100.00
5879;BME280;2965;42.640;23.370;2022-11-18T06:21:14;93424.72;;;6.98;100.00
5879;BME280;2965;42.640;23.370;2022-11-18T06:23:41;93415.81;;;7.07;100.00
5879;BME280;2965;42.640;23.370;2022-11-18T06:26:07;93413.06;;;7.15;100.00
5879;BME280;2965;42.640;23.370;2022-11-18T06:28:34;93419.16;;;7.29;100.00
5879;BME280;2965;42.640;23.370;2022-11-18T06:31:00;93424.19;;;7.30;100.00
5879;BME280;2965;42.640;23.370;2022-11-18T06:33:25;93407.97;;;7.28;100.00
5879;BME280;2965;42.640;23.370;2022-11-18T06:35:50;93419.41;;;7.34;100.00
5879;BME280;2965;42.640;23.370;2022-11-18T06:38:16;93431.22;;;7.37;100.00
5879;BME280;2965;42.640;23.370;2022-11-18T06:40:41;93406.78;;;7.31;100.00
5879;BME280;2965;42.640;23.370;2022-11-18T06:43:10;93382.41;;;7.39;100.00
5879;BME280;2965;42.640;23.370;2022-11-18T06:45:58;93395.41;;;7.39;100.00
5879;BME280;2965;42.640;23.370;2022-11-18T06:48:43;93409.66;;;7.43;100.00
5879;BME280;2965;42.640;23.370;2022-11-18T06:51:09;93409.34;;;7.59;100.00
5879;BME280;2965;42.640;23.370;2022-11-18T06:53:34;93417.63;;;7.69;100.00
5879;BME280;2965;42.640;23.370;2022-11-18T06:56:04;93427.06;;;7.70;100.00
5879;BME280;2965;42.640;23.370;2022-11-18T06:58:30;93407.84;;;7.71;100.00
5879;BME280;2965;42.640;23.370;2022-11-18T07:00:55;93419.47;;;7.75;100.00
5879;BME280;2965;42.640;23.370;2022-11-18T07:03:20;93425.06;;;7.72;100.00
5879;BME280;2965;42.640;23.370;2022-11-18T07:05:46;93416.88;;;7.75;100.00
5879;BME280;2965;42.640;23.370;2022-11-18T07:10:51;93415.19;;;8.02;100.00
5879;BME280;2965;42.640;23.370;2022-11-18T07:13:17;93435.97;;;7.96;100.00
5879;BME280;2965;42.640;23.370;2022-11-18T07:15:42;93424.97;;;8.00;100.00
5879;BME280;2965;42.640;23.370;2022-11-18T07:18:07;93398.34;;;8.05;100.00
5879;BME280;2965;42.640;23.370;2022-11-18T07:20:33;93398.34;;;8.05;100.00
5879;BME280;2965;42.640;23.370;2022-11-18T07:22:59;93392.00;;;8.27;100.00
5879;BME280;2965;42.640;23.370;2022-11-18T07:25:24;93378.88;;;8.49;100.00
5879;BME280;2965;42.640;23.370;2022-11-18T07:27:49;93370.50;;;8.73;100.00
5879;BME280;2965;42.640;23.370;2022-11-18T07:30:15;93361.47;;;8.82;100.00
5879;BME280;2965;42.640;23.370;2022-11-18T07:32:41;93356.06;;;8.97;100.00
5879;BME280;2965;42.640;23.370;2022-11-18T07:35:06;93369.31;;;8.96;100.00
5879;BME280;2965;42.640;23.370;2022-11-18T07:37:32;93359.88;;;9.08;100.00
5879;BME280;2965;42.640;23.370;2022-11-18T07:39:57;93358.03;;;9.28;100.00
5879;BME280;2965;42.640;23.370;2022-11-18T07:42:24;93356.41;;;9.41;100.00
5879;BME280;2965;42.640;23.370;2022-11-18T07:44:49;93363.19;;;9.55;100.00
5879;BME280;2965;42.640;23.370;2022-11-18T07:47:16;93362.81;;;9.58;100.00
5879;BME280;2965;42.640;23.370;2022-11-18T07:49:41;93342.75;;;9.52;100.00
5879;BME280;2965;42.640;23.370;2022-11-18T07:52:06;93344.72;;;9.63;100.00
5879;BME280;2965;42.640;23.370;2022-11-18T07:54:32;93361.16;;;9.70;100.00
5879;BME280;2965;42.640;23.370;2022-11-18T07:56:57;93379.84;;;9.67;100.00
5879;BME280;2965;42.640;23.370;2022-11-18T07:59:23;93375.22;;;9.69;100.00
5879;BME280;2965;42.640;23.370;2022-11-18T08:01:48;93368.34;;;9.81;100.00
5879;BME280;2965;42.640;23.370;2022-11-18T08:04:13;93368.44;;;9.62;100.00
5879;BME280;2965;42.640;23.370;2022-11-18T08:06:39;93375.66;;;9.59;100.00
5879;BME280;2965;42.640;23.370;2022-11-18T08:09:05;93401.72;;;9.73;100.00
5879;BME280;2965;42.640;23.370;2022-11-18T08:11:31;93420.63;;;9.55;100.00
5879;BME280;2965;42.640;23.370;2022-11-18T08:13:57;93419.06;;;9.41;100.00
5879;BME280;2965;42.640;23.370;2022-11-18T08:16:24;93407.00;;;9.40;100.00
5879;BME280;2965;42.640;23.370;2022-11-18T08:18:50;93418.22;;;9.47;100.00
5879;BME280;2965;42.640;23.370;2022-11-18T08:21:18;93393.72;;;9.54;100.00
5879;BME280;2965;42.640;23.370;2022-11-18T08:23:52;93384.09;;;9.55;100.00
5879;BME280;2965;42.640;23.370;2022-11-18T08:26:18;93392.09;;;9.60;100.00
5879;BME280;2965;42.640;23.370;2022-11-18T08:28:44;93383.66;;;9.71;100.00
5879;BME280;2965;42.640;23.370;2022-11-18T08:31:30;93376.81;;;9.83;100.00
5879;BME280;2965;42.640;23.370;2022-11-18T08:33:56;93358.09;;;9.86;100.00
5879;BME280;2965;42.640;23.370;2022-11-18T08:36:23;93391.28;;;9.79;100.00
5879;BME280;2965;42.640;23.370;2022-11-18T08:38:49;93349.00;;;9.96;100.00
5879;BME280;2965;42.640;23.370;2022-11-18T08:41:18;93361.78;;;10.17;100.00
5879;BME280;2965;42.640;23.370;2022-11-18T08:43:44;93351.22;;;10.44;100.00
5879;BME280;2965;42.640;23.370;2022-11-18T08:46:09;93350.91;;;10.90;100.00
5879;BME280;2965;42.640;23.370;2022-11-18T08:48:35;93343.81;;;11.22;100.00
5879;BME280;2965;42.640;23.370;2022-11-18T08:51:01;93313.84;;;11.18;100.00
5879;BME280;2965;42.640;23.370;2022-11-18T08:53:26;93341.19;;;10.97;100.00
5879;BME280;2965;42.640;23.370;2022-11-18T08:55:56;93317.75;;;11.09;100.00
5879;BME280;2965;42.640;23.370;2022-11-18T08:58:22;93300.53;;;10.76;100.00
5879;BME280;2965;42.640;23.370;2022-11-18T09:00:47;93298.09;;;10.50;100.00
5879;BME280;2965;42.640;23.370;2022-11-18T09:03:12;93318.94;;;10.63;100.00
5879;BME280;2965;42.640;23.370;2022-11-18T09:05:38;93292.88;;;10.50;100.00
5879;BME280;2965;42.640;23.370;2022-11-18T09:08:03;93295.75;;;10.92;100.00
5879;BME280;2965;42.640;23.370;2022-11-18T09:10:29;93293.63;;;11.07;100.00
5879;BME280;2965;42.640;23.370;2022-11-18T09:12:54;93290.72;;;11.15;100.00
5879;BME280;2965;42.640;23.370;2022-11-18T09:15:20;93280.84;;;11.35;100.00
5879;BME280;2965;42.640;23.370;2022-11-18T09:17:48;93286.97;;;11.29;100.00
5879;BME280;2965;42.640;23.370;2022-11-18T09:20:14;93286.66;;;11.37;100.00
5879;BME280;2965;42.640;23.370;2022-11-18T09:22:39;93277.06;;;11.50;100.00
5879;BME280;2965;42.640;23.370;2022-11-18T09:25:05;93273.13;;;11.77;100.00
5879;BME280;2965;42.640;23.370;2022-11-18T09:27:30;93276.19;;;11.93;100.00
5879;BME280;2965;42.640;23.370;2022-11-18T09:29:56;93283.47;;;11.91;100.00
5879;BME280;2965;42.640;23.370;2022-11-18T09:32:21;93282.16;;;12.00;100.00
5879;BME280;2965;42.640;23.370;2022-11-18T09:34:46;93288.38;;;12.17;100.00
5879;BME280;2965;42.640;23.370;2022-11-18T09:37:12;93288.88;;;11.96;100.00
5879;BME280;2965;42.640;23.370;2022-11-18T09:39:37;93298.31;;;11.60;100.00
5879;BME280;2965;42.640;23.370;2022-11-18T09:42:31;93286.56;;;11.81;100.00
5879;BME280;2965;42.640;23.370;2022-11-18T09:45:32;93258.00;;;11.79;100.00
5879;BME280;2965;42.640;23.370;2022-11-18T09:47:57;93259.69;;;12.22;100.00
5879;BME280;2965;42.640;23.370;2022-11-18T09:50:23;93250.75;;;12.65;100.00
5879;BME280;2965;42.640;23.370;2022-11-18T09:53:07;93243.47;;;12.91;100.00
5879;BME280;2965;42.640;23.370;2022-11-18T09:55:38;93247.81;;;12.85;100.00
5879;BME280;2965;42.640;23.370;2022-11-18T09:58:06;93248.97;;;13.12;100.00
5879;BME280;2965;42.640;23.370;2022-11-18T10:00:32;93248.28;;;13.17;100.00
5879;BME280;2965;42.640;23.370;2022-11-18T10:03:03;93255.13;;;13.18;100.00
5879;BME280;2965;42.640;23.370;2022-11-18T10:05:50;93248.84;;;13.43;100.00
5879;BME280;2965;42.640;23.370;2022-11-18T10:09:27;93247.91;;;13.49;100.00
5879;BME280;2965;42.640;23.370;2022-11-18T10:11:41;93263.91;;;12.88;100.00
5879;BME280;2965;42.640;23.370;2022-11-18T10:19:29;93267.34;;;13.12;100.00
5879;BME280;2965;42.640;23.370;2022-11-18T10:22:23;93265.50;;;13.60;100.00
5879;BME280;2965;42.640;23.370;2022-11-18T10:27:37;93236.25;;;13.97;100.00
5879;BME280;2965;42.640;23.370;2022-11-18T10:30:13;93229.56;;;14.34;100.00
5879;BME280;2965;42.640;23.370;2022-11-18T10:35:46;93217.66;;;14.94;100.00
5879;BME280;2965;42.640;23.370;2022-11-18T10:40:44;93200.75;;;14.90;100.00
5879;BME280;2965;42.640;23.370;2022-11-18T10:43:11;93197.09;;;14.74;100.00
5879;BME280;2965;42.640;23.370;2022-11-18T10:45:38;93188.16;;;14.75;100.00
5879;BME280;2965;42.640;23.370;2022-11-18T10:48:16;93210.47;;;14.56;100.00
5879;BME280;2965;42.640;23.370;2022-11-18T10:50:47;93201.34;;;14.47;100.00
5879;BME280;2965;42.640;23.370;2022-11-18T10:53:32;93209.16;;;15.09;100.00
5879;BME280;2965;42.640;23.370;2022-11-18T10:58:24;93200.16;;;15.44;100.00
5879;BME280;2965;42.640;23.370;2022-11-18T11:00:50;93198.16;;;15.12;100.00
5879;BME280;2965;42.640;23.370;2022-11-18T11:03:25;93196.09;;;15.14;100.00
5879;BME280;2965;42.640;23.370;2022-11-18T11:08:46;93186.53;;;15.96;100.00
5879;BME280;2965;42.640;23.370;2022-11-18T11:11:20;93191.53;;;16.19;100.00
5879;BME280;2965;42.640;23.370;2022-11-18T11:13:51;93201.19;;;16.08;100.00
5879;BME280;2965;42.640;23.370;2022-11-18T11:16:18;93215.28;;;15.53;100.00
5879;BME280;2965;42.640;23.370;2022-11-18T11:18:51;93197.19;;;15.62;100.00
5879;BME280;2965;42.640;23.370;2022-11-18T11:21:20;93198.97;;;15.73;100.00
5879;BME280;2965;42.640;23.370;2022-11-18T11:26:45;93175.28;;;15.78;100.00
5879;BME280;2965;42.640;23.370;2022-11-18T11:37:56;93161.59;;;15.16;100.00
5879;BME280;2965;42.640;23.370;2022-11-18T11:51:40;93171.94;;;15.22;100.00
5879;BME280;2965;42.640;23.370;2022-11-18T11:57:09;93145.41;;;14.51;100.00
5879;BME280;2965;42.640;23.370;2022-11-18T11:59:45;93160.72;;;14.88;100.00
5879;BME280;2965;42.640;23.370;2022-11-18T12:04:59;93154.16;;;14.74;100.00
5879;BME280;2965;42.640;23.370;2022-11-18T12:07:29;93162.78;;;14.69;100.00
5879;BME280;2965;42.640;23.370;2022-11-18T12:21:05;93163.97;;;14.45;100.00
5879;BME280;2965;42.640;23.370;2022-11-18T12:30:47;93119.34;;;14.50;100.00
5879;BME280;2965;42.640;23.370;2022-11-18T12:33:15;93117.66;;;14.44;100.00
5879;BME280;2965;42.640;23.370;2022-11-18T12:35:46;93110.78;;;14.43;100.00
5879;BME280;2965;42.640;23.370;2022-11-18T12:38:29;93133.44;;;14.44;100.00
5879;BME280;2965;42.640;23.370;2022-11-18T12:40:55;93152.88;;;14.43;100.00
5879;BME280;2965;42.640;23.370;2022-11-18T12:54:51;93112.56;;;14.54;100.00
5879;BME280;2965;42.640;23.370;2022-11-18T12:57:28;93099.97;;;14.56;100.00
5879;BME280;2965;42.640;23.370;2022-11-18T12:59:54;93078.56;;;14.69;100.00
5879;BME280;2965;42.640;23.370;2022-11-18T13:02:24;93085.44;;;14.70;100.00
5879;BME280;2965;42.640;23.370;2022-11-18T13:05:11;93096.06;;;14.58;100.00
5879;BME280;2965;42.640;23.370;2022-11-18T13:07:56;93093.41;;;14.75;100.00
5879;BME280;2965;42.640;23.370;2022-11-18T13:10:43;93086.06;;;14.77;100.00
5879;BME280;2965;42.640;23.370;2022-11-18T13:13:30;93088.81;;;14.66;100.00
5879;BME280;2965;42.640;23.370;2022-11-18T13:16:03;93070.75;;;14.74;100.00
5879;BME280;2965;42.640;23.370;2022-11-18T13:18:52;93035.72;;;14.52;100.00
5879;BME280;2965;42.640;23.370;2022-11-18T13:21:26;93041.53;;;14.54;100.00
5879;BME280;2965;42.640;23.370;2022-11-18T13:24:12;93057.88;;;14.56;100.00
5879;BME280;2965;42.640;23.370;2022-11-18T13:26:40;93069.63;;;14.48;100.00
5879;BME280;2965;42.640;23.370;2022-11-18T13:31:51;93061.94;;;14.63;100.00
5879;BME280;2965;42.640;23.370;2022-11-18T13:34:22;93045.88;;;14.65;100.00
5879;BME280;2965;42.640;23.370;2022-11-18T13:36:49;93035.00;;;14.78;100.00
5879;BME280;2965;42.640;23.370;2022-11-18T13:39:31;93018.13;;;14.74;100.00
5879;BME280;2965;42.640;23.370;2022-11-18T13:44:31;93036.63;;;14.79;100.00
5879;BME280;2965;42.640;23.370;2022-11-18T13:47:03;93047.78;;;14.70;100.00
5879;BME280;2965;42.640;23.370;2022-11-18T13:52:11;93061.41;;;15.05;100.00
5879;BME280;2965;42.640;23.370;2022-11-18T13:54:39;93051.94;;;15.09;100.00
5879;BME280;2965;42.640;23.370;2022-11-18T13:57:05;93049.81;;;15.28;100.00
5879;BME280;2965;42.640;23.370;2022-11-18T13:59:31;93046.06;;;15.46;100.00
5879;BME280;2965;42.640;23.370;2022-11-18T14:01:58;93049.63;;;15.62;100.00
5879;BME280;2965;42.640;23.370;2022-11-18T14:04:26;93032.41;;;15.76;100.00
5879;BME280;2965;42.640;23.370;2022-11-18T14:07:23;93021.94;;;15.86;100.00
5879;BME280;2965;42.640;23.370;2022-11-18T14:09:54;93017.22;;;15.94;100.00
5879;BME280;2965;42.640;23.370;2022-11-18T14:12:28;93024.19;;;16.05;95.95
5879;BME280;2965;42.640;23.370;2022-11-18T14:17:37;93019.28;;;16.24;90.46
5879;BME280;2965;42.640;23.370;2022-11-18T14:20:07;93007.81;;;16.40;83.73
5879;BME280;2965;42.640;23.370;2022-11-18T14:22:40;93023.97;;;16.54;82.12
5879;BME280;2965;42.640;23.370;2022-11-18T14:25:19;93024.56;;;16.61;82.50
5879;BME280;2965;42.640;23.370;2022-11-18T14:30:53;93021.31;;;16.49;83.90
5879;BME280;2965;42.640;23.370;2022-11-18T14:33:23;93022.59;;;16.46;84.35
5879;BME280;2965;42.640;23.370;2022-11-18T14:35:57;93023.41;;;16.47;84.83
5879;BME280;2965;42.640;23.370;2022-11-18T14:41:04;93019.25;;;16.56;83.21
5879;BME280;2965;42.640;23.370;2022-11-18T14:43:29;93024.53;;;16.56;85.02
5879;BME280;2965;42.640;23.370;2022-11-18T14:46:01;93040.00;;;16.42;85.41
5879;BME280;2965;42.640;23.370;2022-11-18T14:48:28;93054.81;;;16.48;83.29
5879;BME280;2965;42.640;23.370;2022-11-18T14:50:54;93038.72;;;16.50;84.80
5879;BME280;2965;42.640;23.370;2022-11-18T14:53:20;93051.91;;;16.50;83.82
5879;BME280;2965;42.640;23.370;2022-11-18T14:55:51;93061.94;;;16.48;85.26
5879;BME280;2965;42.640;23.370;2022-11-18T14:58:17;93064.66;;;16.58;81.12
5879;BME280;2965;42.640;23.370;2022-11-18T15:00:45;93054.63;;;16.60;81.77
5879;BME280;2965;42.640;23.370;2022-11-18T15:03:10;93071.00;;;16.62;81.16
5879;BME280;2965;42.640;23.370;2022-11-18T15:05:36;93077.38;;;16.66;85.27
5879;BME280;2965;42.640;23.370;2022-11-18T15:08:02;93086.25;;;16.55;86.14
5879;BME280;2965;42.640;23.370;2022-11-18T15:10:27;93099.22;;;16.24;93.51
5879;BME280;2965;42.640;23.370;2022-11-18T15:12:53;93094.91;;;16.08;98.27
5879;BME280;2965;42.640;23.370;2022-11-18T15:15:18;93078.53;;;16.11;100.00
5879;BME280;2965;42.640;23.370;2022-11-18T15:17:43;93070.13;;;16.14;100.00
5879;BME280;2965;42.640;23.370;2022-11-18T15:20:15;93049.28;;;16.07;100.00
5879;BME280;2965;42.640;23.370;2022-11-18T15:22:41;93061.81;;;15.95;100.00
5879;BME280;2965;42.640;23.370;2022-11-18T15:25:08;93043.84;;;15.92;100.00
5879;BME280;2965;42.640;23.370;2022-11-18T15:27:33;93023.47;;;15.82;100.00
5879;BME280;2965;42.640;23.370;2022-11-18T15:29:59;93035.06;;;15.81;100.00
5879;BME280;2965;42.640;23.370;2022-11-18T15:32:24;93037.19;;;15.84;100.00
5879;BME280;2965;42.640;23.370;2022-11-18T15:34:50;93046.44;;;15.60;100.00
5879;BME280;2965;42.640;23.370;2022-11-18T15:37:15;93043.38;;;15.41;100.00
5879;BME280;2965;42.640;23.370;2022-11-18T15:39:41;93031.16;;;15.35;100.00
5879;BME280;2965;42.640;23.370;2022-11-18T15:42:06;93028.22;;;15.31;100.00
5879;BME280;2965;42.640;23.370;2022-11-18T15:47:11;93012.22;;;15.11;100.00
5879;BME280;2965;42.640;23.370;2022-11-18T15:49:36;93008.00;;;15.10;100.00
5879;BME280;2965;42.640;23.370;2022-11-18T15:52:10;93007.34;;;14.98;100.00
5879;BME280;2965;42.640;23.370;2022-11-18T15:54:36;93026.31;;;15.00;100.00
5879;BME280;2965;42.640;23.370;2022-11-18T15:57:02;93014.97;;;14.99;100.00
5879;BME280;2965;42.640;23.370;2022-11-18T15:59:27;93004.09;;;14.91;100.00
5879;BME280;2965;42.640;23.370;2022-11-18T16:01:54;92996.56;;;14.77;100.00
5879;BME280;2965;42.640;23.370;2022-11-18T16:04:19;92995.88;;;14.65;100.00
5879;BME280;2965;42.640;23.370;2022-11-18T16:06:45;92999.50;;;14.42;100.00
5879;BME280;2965;42.640;23.370;2022-11-18T16:09:11;92992.66;;;14.58;100.00
5879;BME280;2965;42.640;23.370;2022-11-18T16:11:37;92986.75;;;14.51;100.00
5879;BME280;2965;42.640;23.370;2022-11-18T16:14:22;92995.22;;;14.53;100.00
5879;BME280;2965;42.640;23.370;2022-11-18T16:16:49;92989.97;;;14.36;100.00
5879;BME280;2965;42.640;23.370;2022-11-18T16:19:17;92986.22;;;14.32;100.00
5879;BME280;2965;42.640;23.370;2022-11-18T16:21:48;93002.88;;;14.37;100.00
5879;BME280;2965;42.640;23.370;2022-11-18T16:24:17;93037.00;;;14.32;100.00
5879;BME280;2965;42.640;23.370;2022-11-18T16:26:42;93056.59;;;14.25;100.00
5879;BME280;2965;42.640;23.370;2022-11-18T16:29:09;93063.47;;;14.26;100.00
5879;BME280;2965;42.640;23.370;2022-11-18T16:31:35;93047.78;;;14.31;100.00
5879;BME280;2965;42.640;23.370;2022-11-18T16:36:30;93029.03;;;14.27;100.00
5879;BME280;2965;42.640;23.370;2022-11-18T16:38:55;93034.16;;;14.00;100.00
5879;BME280;2965;42.640;23.370;2022-11-18T16:41:21;93048.81;;;14.13;100.00
5879;BME280;2965;42.640;23.370;2022-11-18T16:43:55;93055.34;;;13.94;100.00
5879;BME280;2965;42.640;23.370;2022-11-18T16:46:22;93052.63;;;14.22;100.00
5879;BME280;2965;42.640;23.370;2022-11-18T16:48:48;93039.56;;;14.27;100.00
5879;BME280;2965;42.640;23.370;2022-11-18T16:51:20;93044.81;;;14.27;100.00
5879;BME280;2965;42.640;23.370;2022-11-18T16:53:50;93047.53;;;14.32;100.00
5879;BME280;2965;42.640;23.370;2022-11-18T16:56:16;93065.84;;;14.27;100.00
5879;BME280;2965;42.640;23.370;2022-11-18T16:58:41;93062.19;;;14.11;100.00
5879;BME280;2965;42.640;23.370;2022-11-18T17:01:11;93048.81;;;14.13;100.00
5879;BME280;2965;42.640;23.370;2022-11-18T17:03:36;93057.09;;;14.22;100.00
5879;BME280;2965;42.640;23.370;2022-11-18T17:06:02;93044.47;;;14.41;100.00
5879;BME280;2965;42.640;23.370;2022-11-18T17:08:27;93029.75;;;14.39;100.00
5879;BME280;2965;42.640;23.370;2022-11-18T17:10:53;93070.31;;;14.44;100.00
5879;BME280;2965;42.640;23.370;2022-11-18T17:13:18;93051.41;;;14.47;100.00
5879;BME280;2965;42.640;23.370;2022-11-18T17:15:44;93055.31;;;14.61;100.00
5879;BME280;2965;42.640;23.370;2022-11-18T17:20:40;93056.59;;;14.58;100.00
5879;BME280;2965;42.640;23.370;2022-11-18T17:23:05;93047.44;;;14.61;100.00
5879;BME280;2965;42.640;23.370;2022-11-18T17:25:32;93054.50;;;14.60;100.00
5879;BME280;2965;42.640;23.370;2022-11-18T17:27:57;93043.38;;;14.53;100.00
5879;BME280;2965;42.640;23.370;2022-11-18T17:30:23;93038.06;;;14.70;100.00
5879;BME280;2965;42.640;23.370;2022-11-18T17:32:48;93046.41;;;15.06;100.00
5879;BME280;2965;42.640;23.370;2022-11-18T17:35:15;93024.34;;;15.12;100.00
5879;BME280;2965;42.640;23.370;2022-11-18T17:37:41;93004.69;;;15.20;100.00
5879;BME280;2965;42.640;23.370;2022-11-18T17:40:07;93005.78;;;15.24;100.00
5879;BME280;2965;42.640;23.370;2022-11-18T17:42:32;92995.56;;;15.27;100.00
5879;BME280;2965;42.640;23.370;2022-11-18T17:44:58;92985.28;;;15.58;100.00
5879;BME280;2965;42.640;23.370;2022-11-18T17:50:04;92980.81;;;15.85;100.00
5879;BME280;2965;42.640;23.370;2022-11-18T17:52:51;92951.28;;;15.88;100.00
5879;BME280;2965;42.640;23.370;2022-11-18T17:55:17;92983.84;;;16.04;100.00
5879;BME280;2965;42.640;23.370;2022-11-18T17:57:44;92971.47;;;16.10;100.00
5879;BME280;2965;42.640;23.370;2022-11-18T18:00:09;92987.78;;;16.07;100.00
5879;BME280;2965;42.640;23.370;2022-11-18T18:02:35;92993.34;;;16.10;100.00
5879;BME280;2965;42.640;23.370;2022-11-18T18:05:01;92987.13;;;16.27;100.00
5879;BME280;2965;42.640;23.370;2022-11-18T18:07:28;92976.09;;;16.30;100.00
5879;BME280;2965;42.640;23.370;2022-11-18T18:09:54;92962.88;;;16.25;100.00
5879;BME280;2965;42.640;23.370;2022-11-18T18:12:19;92952.59;;;16.33;100.00
5879;BME280;2965;42.640;23.370;2022-11-18T18:15:03;92951.00;;;16.27;100.00
5879;BME280;2965;42.640;23.370;2022-11-18T18:17:28;92952.03;;;16.21;100.00
5879;BME280;2965;42.640;23.370;2022-11-18T18:19:54;92960.94;;;16.15;100.00
5879;BME280;2965;42.640;23.370;2022-11-18T18:22:19;92958.47;;;16.40;100.00
5879;BME280;2965;42.640;23.370;2022-11-18T18:24:44;92938.44;;;16.45;100.00
5879;BME280;2965;42.640;23.370;2022-11-18T18:27:10;92940.56;;;16.53;100.00
5879;BME280;2965;42.640;23.370;2022-11-18T18:29:35;92948.75;;;16.51;100.00
5879;BME280;2965;42.640;23.370;2022-11-18T18:32:01;92964.63;;;16.61;99.56
5879;BME280;2965;42.640;23.370;2022-11-18T18:34:27;92942.00;;;16.76;97.13
5879;BME280;2965;42.640;23.370;2022-11-18T18:36:52;92952.84;;;16.74;99.14
5879;BME280;2965;42.640;23.370;2022-11-18T18:39:18;92953.88;;;16.73;99.79
5879;BME280;2965;42.640;23.370;2022-11-18T18:41:43;92963.41;;;16.79;99.10
5879;BME280;2965;42.640;23.370;2022-11-18T18:44:08;92988.28;;;16.88;97.82
5879;BME280;2965;42.640;23.370;2022-11-18T18:46:34;92995.94;;;16.90;98.03
5879;BME280;2965;42.640;23.370;2022-11-18T18:49:06;92925.41;;;16.85;99.85
5879;BME280;2965;42.640;23.370;2022-11-18T18:51:43;92996.31;;;16.67;100.00
5879;BME280;2965;42.640;23.370;2022-11-18T18:54:11;93023.59;;;16.77;98.52
5879;BME280;2965;42.640;23.370;2022-11-18T18:56:37;93011.94;;;16.73;99.07
5879;BME280;2965;42.640;23.370;2022-11-18T18:59:03;92995.03;;;16.69;99.61
5879;BME280;2965;42.640;23.370;2022-11-18T19:01:29;93012.38;;;16.60;99.83
5879;BME280;2965;42.640;23.370;2022-11-18T19:03:56;93051.78;;;16.72;99.02
5879;BME280;2965;42.640;23.370;2022-11-18T19:06:27;93013.47;;;16.64;100.00
5879;BME280;2965;42.640;23.370;2022-11-18T19:08:53;93041.34;;;16.45;100.00
5879;BME280;2965;42.640;23.370;2022-11-18T19:11:23;93026.50;;;16.76;100.00
5879;BME280;2965;42.640;23.370;2022-11-18T19:14:09;93007.25;;;16.85;99.15
5879;BME280;2965;42.640;23.370;2022-11-18T19:16:35;93014.66;;;16.83;98.18
5879;BME280;2965;42.640;23.370;2022-11-18T19:19:02;93008.31;;;16.84;99.01
5879;BME280;2965;42.640;23.370;2022-11-18T19:21:28;93011.25;;;16.88;96.95
5879;BME280;2965;42.640;23.370;2022-11-18T19:23:53;93017.81;;;16.80;100.00
5879;BME280;2965;42.640;23.370;2022-11-18T19:26:19;93026.72;;;16.69;99.91
5879;BME280;2965;42.640;23.370;2022-11-18T19:28:45;93043.50;;;16.53;100.00
5879;BME280;2965;42.640;23.370;2022-11-18T19:31:11;93044.06;;;16.60;100.00
5879;BME280;2965;42.640;23.370;2022-11-18T19:33:36;93027.22;;;16.66;100.00
5879;BME280;2965;42.640;23.370;2022-11-18T19:36:03;93053.03;;;16.59;100.00
5879;BME280;2965;42.640;23.370;2022-11-18T19:38:29;93054.69;;;16.70;97.38
5879;BME280;2965;42.640;23.370;2022-11-18T19:40:59;93060.06;;;16.80;97.78
5879;BME280;2965;42.640;23.370;2022-11-18T19:43:25;93058.22;;;16.86;97.35
5879;BME280;2965;42.640;23.370;2022-11-18T19:45:51;93074.63;;;16.93;96.30
5879;BME280;2965;42.640;23.370;2022-11-18T19:48:17;93078.66;;;17.01;96.40
5879;BME280;2965;42.640;23.370;2022-11-18T19:50:43;93065.75;;;17.09;95.86
5879;BME280;2965;42.640;23.370;2022-11-18T19:53:08;93067.06;;;17.12;96.81
5879;BME280;2965;42.640;23.370;2022-11-18T19:55:54;93088.19;;;17.12;96.02
5879;BME280;2965;42.640;23.370;2022-11-18T19:58:20;93069.69;;;17.07;97.66
5879;BME280;2965;42.640;23.370;2022-11-18T20:00:46;93092.94;;;17.05;98.06
5879;BME280;2965;42.640;23.370;2022-11-18T20:03:11;93084.47;;;17.08;99.44